PWSweather.com
Personal Weather Stations
Station Observations
WAREHAM1
West Wareham, MA 02576

West Wareham, MA 02576

Lat: 41.7961059, Lon: -70.775612

Elevation: 88

Station Type: Davis Vantage Vue

http://www.gateway2capecod.com

High Low Average
Temperature 45.1°F7.3°C 37.2°F2.9°C 43.3°F6.3°C
Dew Point 43.3°F6.3°C 33.8°F1.0°C 39.2°F4.0°C
Winds 2.9 mph 4.7 kmh Calm Calm 1.0 mph SW1.6 kmh SW
Wind Gusts 14.1 mph22.7 kmh -- 5.0 mph8.0 kmh
Humidity 95% 75% 85%
Pressure 30.31 in1026.4 mb 30.16 in1021.3 mb -
Precipitation 0.04 in1.0 mm - -
Hour Temp Dew Point Humidity Winds Wind Gusts Pressure Precip Precip Rate Daily Precip Total
12:03 AM 44.1°F6.7°C 42.4°F5.8°C 94% Calm Calm 4.0 mph6.4 kmh 30.20 in1022.7 mb 0.00 in0.0 mm 0.00 in0.0 mm 0.10 in2.5 mm
12:13 AM 43.9°F6.6°C 42.3°F5.7°C 94% Calm Calm 1.0 mph1.6 kmh 30.20 in1022.7 mb 0.00 in0.0 mm 0.00 in0.0 mm 0.10 in2.5 mm
12:23 AM 43.9°F6.6°C 42.3°F5.7°C 94% Calm Calm 4.0 mph6.4 kmh 30.21 in1023.0 mb 0.00 in0.0 mm 0.00 in0.0 mm 0.10 in2.5 mm
12:33 AM 43.9°F6.6°C 41.9°F5.5°C 93% Calm Calm 2.9 mph4.7 kmh 30.20 in1022.7 mb 0.00 in0.0 mm 0.00 in0.0 mm 0.10 in2.5 mm
12:43 AM 43.7°F6.5°C 41.7°F5.4°C 93% Calm Calm 4.9 mph7.9 kmh 30.20 in1022.7 mb 0.00 in0.0 mm 0.00 in0.0 mm 0.10 in2.5 mm
12:53 AM 43.7°F6.5°C 41.7°F5.4°C 93% 0.9 mph NW1.4 kmh NW 4.9 mph7.9 kmh 30.19 in1022.4 mb 0.00 in0.0 mm 0.00 in0.0 mm 0.11 in2.8 mm
01:03 AM 43.5°F6.4°C 41.7°F5.4°C 93% 0.9 mph E1.4 kmh E 4.9 mph7.9 kmh 30.19 in1022.4 mb 0.01 in0.3 mm 0.01 in0.3 mm 0.01 in0.3 mm
01:13 AM 43.5°F6.4°C 41.7°F5.4°C 93% Calm Calm 4.0 mph6.4 kmh 30.18 in1022.0 mb 0.01 in0.3 mm 0.00 in0.0 mm 0.01 in0.3 mm
01:23 AM 43.3°F6.3°C 41.5°F5.3°C 93% 0.9 mph NNW1.4 kmh NNW 6.0 mph9.7 kmh 30.18 in1022.0 mb 0.01 in0.3 mm 0.00 in0.0 mm 0.01 in0.3 mm
01:33 AM 43.3°F6.3°C 41.7°F5.4°C 94% Calm Calm 4.0 mph6.4 kmh 30.19 in1022.4 mb 0.01 in0.3 mm 0.00 in0.0 mm 0.01 in0.3 mm
01:43 AM 43.5°F6.4°C 41.9°F5.5°C 94% 0.9 mph NE1.4 kmh NE 6.0 mph9.7 kmh 30.18 in1022.0 mb 0.01 in0.3 mm 0.00 in0.0 mm 0.01 in0.3 mm
01:53 AM 43.3°F6.3°C 41.7°F5.4°C 94% 0.9 mph NE1.4 kmh NE 7.0 mph11.3 kmh 30.18 in1022.0 mb 0.01 in0.3 mm 0.00 in0.0 mm 0.01 in0.3 mm
02:03 AM 43.5°F6.4°C 41.9°F5.5°C 94% Calm Calm 2.0 mph3.2 kmh 30.18 in1022.0 mb 0.00 in0.0 mm 0.00 in0.0 mm 0.01 in0.3 mm
02:13 AM 43.5°F6.4°C 41.9°F5.5°C 94% Calm Calm 5.0 mph8.0 kmh 30.18 in1022.0 mb 0.00 in0.0 mm 0.00 in0.0 mm 0.01 in0.3 mm
02:23 AM 43.5°F6.4°C 41.9°F5.5°C 94% Calm Calm 2.0 mph3.2 kmh 30.18 in1022.0 mb 0.00 in0.0 mm 0.00 in0.0 mm 0.01 in0.3 mm
02:33 AM 43.5°F6.4°C 41.9°F5.5°C 94% Calm Calm 3.0 mph4.8 kmh 30.17 in1021.7 mb 0.00 in0.0 mm 0.00 in0.0 mm 0.01 in0.3 mm
02:43 AM 43.7°F6.5°C 42.1°F5.6°C 94% 0.9 mph E1.4 kmh E 4.9 mph7.9 kmh 30.17 in1021.7 mb 0.00 in0.0 mm 0.00 in0.0 mm 0.01 in0.3 mm
02:53 AM 44.1°F6.7°C 42.4°F5.8°C 94% 0.9 mph W1.4 kmh W 6.0 mph9.7 kmh 30.17 in1021.7 mb 0.00 in0.0 mm 0.00 in0.0 mm 0.01 in0.3 mm
03:03 AM 44.1°F6.7°C 42.4°F5.8°C 94% Calm Calm 2.9 mph4.7 kmh 30.17 in1021.7 mb 0.00 in0.0 mm 0.00 in0.0 mm 0.01 in0.3 mm
03:13 AM 44.1°F6.7°C 42.4°F5.8°C 94% Calm Calm 2.9 mph4.7 kmh 30.17 in1021.7 mb 0.00 in0.0 mm 0.00 in0.0 mm 0.01 in0.3 mm
03:23 AM 44.1°F6.7°C 42.4°F5.8°C 94% Calm Calm 2.9 mph4.7 kmh 30.17 in1021.7 mb 0.00 in0.0 mm 0.00 in0.0 mm 0.01 in0.3 mm
03:33 AM 44.1°F6.7°C 42.4°F5.8°C 94% Calm Calm 2.9 mph4.7 kmh 30.17 in1021.7 mb 0.00 in0.0 mm 0.00 in0.0 mm 0.01 in0.3 mm
03:43 AM 44.2°F6.8°C 42.6°F5.9°C 94% Calm Calm -- 30.17 in1021.7 mb 0.00 in0.0 mm 0.00 in0.0 mm 0.01 in0.3 mm
03:53 AM 44.1°F6.7°C 42.4°F5.8°C 94% Calm Calm -- 30.17 in1021.7 mb 0.01 in0.3 mm 0.06 in1.5 mm 0.01 in0.3 mm
04:03 AM 44.1°F6.7°C 42.4°F5.8°C 94% Calm Calm 4.0 mph6.4 kmh 30.17 in1021.7 mb 0.01 in0.3 mm 0.00 in0.0 mm 0.01 in0.3 mm
04:13 AM 44.2°F6.8°C 42.6°F5.9°C 94% Calm Calm 6.0 mph9.7 kmh 30.17 in1021.7 mb 0.01 in0.3 mm 0.00 in0.0 mm 0.01 in0.3 mm
04:23 AM 44.4°F6.9°C 42.8°F6.0°C 94% 0.9 mph N1.4 kmh N 2.9 mph4.7 kmh 30.16 in1021.3 mb 0.01 in0.3 mm 0.00 in0.0 mm 0.01 in0.3 mm
04:33 AM 44.4°F6.9°C 42.8°F6.0°C 94% Calm Calm 2.0 mph3.2 kmh 30.17 in1021.7 mb 0.01 in0.3 mm 0.00 in0.0 mm 0.01 in0.3 mm
04:43 AM 44.4°F6.9°C 42.8°F6.0°C 94% Calm Calm 2.9 mph4.7 kmh 30.16 in1021.3 mb 0.01 in0.3 mm 0.00 in0.0 mm 0.01 in0.3 mm
04:53 AM 44.8°F7.1°C 43.2°F6.2°C 94% 0.9 mph NE1.4 kmh NE 4.0 mph6.4 kmh 30.17 in1021.7 mb 0.00 in0.0 mm 0.00 in0.0 mm 0.01 in0.3 mm
05:03 AM 45.0°F7.2°C 43.3°F6.3°C 94% Calm Calm 4.0 mph6.4 kmh 30.17 in1021.7 mb 0.00 in0.0 mm 0.00 in0.0 mm 0.01 in0.3 mm
05:13 AM 45.0°F7.2°C 43.0°F6.1°C 93% 0.9 mph SSE1.4 kmh SSE 6.0 mph9.7 kmh 30.17 in1021.7 mb 0.00 in0.0 mm 0.00 in0.0 mm 0.01 in0.3 mm
05:23 AM 45.1°F7.3°C 43.2°F6.2°C 93% 0.9 mph ENE1.4 kmh ENE 8.1 mph13.0 kmh 30.16 in1021.3 mb 0.00 in0.0 mm 0.00 in0.0 mm 0.01 in0.3 mm
05:33 AM 45.1°F7.3°C 43.0°F6.1°C 92% 0.9 mph N1.4 kmh N 4.9 mph7.9 kmh 30.16 in1021.3 mb 0.00 in0.0 mm 0.00 in0.0 mm 0.01 in0.3 mm
05:43 AM 45.1°F7.3°C 43.2°F6.2°C 93% 0.9 mph SSE1.4 kmh SSE 4.9 mph7.9 kmh 30.17 in1021.7 mb 0.00 in0.0 mm 0.00 in0.0 mm 0.01 in0.3 mm
05:53 AM 45.1°F7.3°C 43.2°F6.2°C 93% 0.9 mph N1.4 kmh N 6.9 mph11.1 kmh 30.17 in1021.7 mb 0.00 in0.0 mm 0.00 in0.0 mm 0.01 in0.3 mm
06:03 AM 45.1°F7.3°C 43.2°F6.2°C 93% 2.0 mph NE3.2 kmh NE 6.9 mph11.1 kmh 30.18 in1022.0 mb 0.00 in0.0 mm 0.00 in0.0 mm 0.01 in0.3 mm
06:13 AM 45.0°F7.2°C 43.0°F6.1°C 93% 2.9 mph SSE4.7 kmh SSE 8.1 mph13.0 kmh 30.18 in1022.0 mb 0.00 in0.0 mm 0.00 in0.0 mm 0.01 in0.3 mm
06:23 AM 45.0°F7.2°C 43.3°F6.3°C 94% 2.0 mph NNE3.2 kmh NNE 8.1 mph13.0 kmh 30.19 in1022.4 mb 0.00 in0.0 mm 0.00 in0.0 mm 0.01 in0.3 mm
06:33 AM 44.8°F7.1°C 43.2°F6.2°C 94% 2.9 mph NE4.7 kmh NE 10.1 mph16.3 kmh 30.19 in1022.4 mb 0.01 in0.3 mm 0.06 in1.5 mm 0.02 in0.5 mm
06:43 AM 44.8°F7.1°C 43.2°F6.2°C 94% 2.0 mph ENE3.2 kmh ENE 6.9 mph11.1 kmh 30.19 in1022.4 mb 0.01 in0.3 mm 0.00 in0.0 mm 0.02 in0.5 mm
06:53 AM 44.6°F7.0°C 43.0°F6.1°C 94% 2.0 mph NW3.2 kmh NW 10.1 mph16.3 kmh 30.20 in1022.7 mb 0.01 in0.3 mm 0.00 in0.0 mm 0.02 in0.5 mm
07:03 AM 44.4°F6.9°C 43.2°F6.2°C 95% 2.0 mph E3.2 kmh E 11.0 mph17.7 kmh 30.20 in1022.7 mb 0.01 in0.3 mm 0.00 in0.0 mm 0.02 in0.5 mm
07:13 AM 44.4°F6.9°C 42.8°F6.0°C 94% 2.9 mph ENE4.7 kmh ENE 6.9 mph11.1 kmh 30.20 in1022.7 mb 0.01 in0.3 mm 0.00 in0.0 mm 0.02 in0.5 mm
07:23 AM 44.2°F6.8°C 42.6°F5.9°C 94% 2.9 mph E4.7 kmh E 11.0 mph17.7 kmh 30.20 in1022.7 mb 0.02 in0.5 mm 0.06 in1.5 mm 0.03 in0.8 mm
07:33 AM 44.2°F6.8°C 43.0°F6.1°C 95% 2.9 mph ENE4.7 kmh ENE 10.1 mph16.3 kmh 30.20 in1022.7 mb 0.01 in0.3 mm 0.00 in0.0 mm 0.03 in0.8 mm
07:43 AM 44.1°F6.7°C 42.8°F6.0°C 95% 2.0 mph S3.2 kmh S 8.1 mph13.0 kmh 30.20 in1022.7 mb 0.01 in0.3 mm 0.00 in0.0 mm 0.03 in0.8 mm
07:53 AM 44.1°F6.7°C 42.8°F6.0°C 95% 2.9 mph NW4.7 kmh NW 11.0 mph17.7 kmh 30.20 in1022.7 mb 0.01 in0.3 mm 0.00 in0.0 mm 0.03 in0.8 mm
08:03 AM 44.1°F6.7°C 42.8°F6.0°C 95% 2.0 mph NNW3.2 kmh NNW 6.9 mph11.1 kmh 30.21 in1023.0 mb 0.01 in0.3 mm 0.00 in0.0 mm 0.03 in0.8 mm
08:13 AM 44.1°F6.7°C 42.8°F6.0°C 95% 2.0 mph NW3.2 kmh NW 8.1 mph13.0 kmh 30.21 in1023.0 mb 0.01 in0.3 mm 0.00 in0.0 mm 0.03 in0.8 mm
08:23 AM 43.9°F6.6°C 42.6°F5.9°C 95% 2.9 mph ESE4.7 kmh ESE 14.1 mph22.7 kmh 30.22 in1023.4 mb 0.01 in0.3 mm 0.00 in0.0 mm 0.04 in1.0 mm
08:33 AM 44.1°F6.7°C 42.8°F6.0°C 95% 2.0 mph SE3.2 kmh SE 6.9 mph11.1 kmh 30.22 in1023.4 mb 0.01 in0.3 mm 0.00 in0.0 mm 0.04 in1.0 mm
08:43 AM 43.9°F6.6°C 42.6°F5.9°C 95% 0.9 mph WNW1.4 kmh WNW 4.9 mph7.9 kmh 30.22 in1023.4 mb 0.01 in0.3 mm 0.00 in0.0 mm 0.04 in1.0 mm
08:53 AM 43.9°F6.6°C 42.6°F5.9°C 95% 0.9 mph E1.4 kmh E 8.1 mph13.0 kmh 30.24 in1024.0 mb 0.01 in0.3 mm 0.00 in0.0 mm 0.04 in1.0 mm
09:03 AM 43.9°F6.6°C 42.3°F5.7°C 94% 2.9 mph NE4.7 kmh NE 11.0 mph17.7 kmh 30.24 in1024.0 mb 0.01 in0.3 mm 0.00 in0.0 mm 0.04 in1.0 mm
09:13 AM 43.7°F6.5°C 42.1°F5.6°C 94% 2.0 mph NE3.2 kmh NE 10.1 mph16.3 kmh 30.24 in1024.0 mb 0.01 in0.3 mm 0.00 in0.0 mm 0.04 in1.0 mm
09:23 AM 43.9°F6.6°C 41.9°F5.5°C 93% 2.9 mph NE4.7 kmh NE 13.0 mph20.9 kmh 30.24 in1024.0 mb 0.00 in0.0 mm 0.00 in0.0 mm 0.04 in1.0 mm
09:33 AM 43.9°F6.6°C 41.4°F5.2°C 91% 2.9 mph NE4.7 kmh NE 8.9 mph14.3 kmh 30.24 in1024.0 mb 0.00 in0.0 mm 0.00 in0.0 mm 0.04 in1.0 mm
09:43 AM 43.9°F6.6°C 41.4°F5.2°C 91% 2.0 mph E3.2 kmh E 11.0 mph17.7 kmh 30.24 in1024.0 mb 0.00 in0.0 mm 0.00 in0.0 mm 0.04 in1.0 mm
09:53 AM 43.9°F6.6°C 41.2°F5.1°C 90% 2.0 mph ENE3.2 kmh ENE 6.9 mph11.1 kmh 30.25 in1024.4 mb 0.00 in0.0 mm 0.00 in0.0 mm 0.04 in1.0 mm
10:03 AM 44.1°F6.7°C 41.4°F5.2°C 90% 0.9 mph NW1.4 kmh NW 6.0 mph9.7 kmh 30.25 in1024.4 mb 0.00 in0.0 mm 0.00 in0.0 mm 0.04 in1.0 mm
10:13 AM 44.1°F6.7°C 41.0°F5.0°C 89% 0.9 mph NNW1.4 kmh NNW 6.9 mph11.1 kmh 30.26 in1024.7 mb 0.00 in0.0 mm 0.00 in0.0 mm 0.04 in1.0 mm
10:23 AM 44.2°F6.8°C 41.0°F5.0°C 88% 2.0 mph SW3.2 kmh SW 9.0 mph14.5 kmh 30.26 in1024.7 mb 0.00 in0.0 mm 0.00 in0.0 mm 0.04 in1.0 mm
10:33 AM 43.9°F6.6°C 41.2°F5.1°C 90% 0.9 mph S1.4 kmh S 6.9 mph11.1 kmh 30.26 in1024.7 mb 0.00 in0.0 mm 0.00 in0.0 mm 0.04 in1.0 mm
10:43 AM 43.7°F6.5°C 41.0°F5.0°C 90% 0.9 mph NE1.4 kmh NE 7.0 mph11.3 kmh 30.26 in1024.7 mb 0.00 in0.0 mm 0.00 in0.0 mm 0.04 in1.0 mm
10:53 AM 43.5°F6.4°C 40.8°F4.9°C 90% 0.9 mph NNE1.4 kmh NNE 6.9 mph11.1 kmh 30.26 in1024.7 mb 0.00 in0.0 mm 0.00 in0.0 mm 0.04 in1.0 mm
11:03 AM 43.5°F6.4°C 40.3°F4.6°C 88% 2.0 mph ENE3.2 kmh ENE 7.0 mph11.3 kmh 30.26 in1024.7 mb 0.00 in0.0 mm 0.00 in0.0 mm 0.04 in1.0 mm
11:13 AM 43.9°F6.6°C 40.6°F4.8°C 88% 0.9 mph E1.4 kmh E 7.0 mph11.3 kmh 30.26 in1024.7 mb 0.00 in0.0 mm 0.00 in0.0 mm 0.04 in1.0 mm
11:23 AM 44.1°F6.7°C 40.1°F4.5°C 86% 2.0 mph NW3.2 kmh NW 8.1 mph13.0 kmh 30.26 in1024.7 mb 0.00 in0.0 mm 0.00 in0.0 mm 0.04 in1.0 mm
11:33 AM 44.2°F6.8°C 40.1°F4.5°C 85% 2.0 mph NW3.2 kmh NW 6.0 mph9.7 kmh 30.25 in1024.4 mb 0.00 in0.0 mm 0.00 in0.0 mm 0.04 in1.0 mm
11:43 AM 44.4°F6.9°C 39.9°F4.4°C 84% 2.0 mph NW3.2 kmh NW 8.1 mph13.0 kmh 30.25 in1024.4 mb 0.00 in0.0 mm 0.00 in0.0 mm 0.04 in1.0 mm
11:53 AM 44.6°F7.0°C 40.1°F4.5°C 84% 2.0 mph NNE3.2 kmh NNE 6.0 mph9.7 kmh 30.25 in1024.4 mb 0.00 in0.0 mm 0.00 in0.0 mm 0.04 in1.0 mm
12:03 PM 44.8°F7.1°C 39.6°F4.2°C 82% 2.0 mph E3.2 kmh E 7.0 mph11.3 kmh 30.24 in1024.0 mb 0.00 in0.0 mm 0.00 in0.0 mm 0.04 in1.0 mm
12:13 PM 44.8°F7.1°C 39.6°F4.2°C 82% 2.0 mph WSW3.2 kmh WSW 6.9 mph11.1 kmh 30.24 in1024.0 mb 0.00 in0.0 mm 0.00 in0.0 mm 0.04 in1.0 mm
12:23 PM 44.8°F7.1°C 39.4°F4.1°C 81% 2.0 mph NNW3.2 kmh NNW 6.0 mph9.7 kmh 30.24 in1024.0 mb 0.00 in0.0 mm 0.00 in0.0 mm 0.04 in1.0 mm
12:33 PM 45.0°F7.2°C 39.6°F4.2°C 81% 2.0 mph NW3.2 kmh NW 9.0 mph14.5 kmh 30.24 in1024.0 mb 0.00 in0.0 mm 0.00 in0.0 mm 0.04 in1.0 mm
12:43 PM 45.0°F7.2°C 39.6°F4.2°C 81% 2.0 mph S3.2 kmh S 6.0 mph9.7 kmh 30.24 in1024.0 mb 0.00 in0.0 mm 0.00 in0.0 mm 0.04 in1.0 mm
12:53 PM 44.8°F7.1°C 39.4°F4.1°C 81% 2.9 mph NE4.7 kmh NE 8.1 mph13.0 kmh 30.24 in1024.0 mb 0.00 in0.0 mm 0.00 in0.0 mm 0.04 in1.0 mm
01:03 PM 44.8°F7.1°C 39.4°F4.1°C 81% 2.0 mph WNW3.2 kmh WNW 8.1 mph13.0 kmh 30.23 in1023.7 mb 0.00 in0.0 mm 0.00 in0.0 mm 0.04 in1.0 mm
01:13 PM 44.6°F7.0°C 38.8°F3.8°C 80% 2.0 mph E3.2 kmh E 8.0 mph12.9 kmh 30.24 in1024.0 mb 0.00 in0.0 mm 0.00 in0.0 mm 0.04 in1.0 mm
01:23 PM 44.4°F6.9°C 38.3°F3.5°C 79% 2.0 mph WSW3.2 kmh WSW 8.1 mph13.0 kmh 30.24 in1024.0 mb 0.00 in0.0 mm 0.00 in0.0 mm 0.04 in1.0 mm
01:33 PM 44.4°F6.9°C 38.3°F3.5°C 79% 2.9 mph W4.7 kmh W 12.1 mph19.5 kmh 30.24 in1024.0 mb 0.00 in0.0 mm 0.00 in0.0 mm 0.04 in1.0 mm
01:43 PM 44.4°F6.9°C 37.9°F3.3°C 78% 2.0 mph SE3.2 kmh SE 8.1 mph13.0 kmh 30.23 in1023.7 mb 0.00 in0.0 mm 0.00 in0.0 mm 0.04 in1.0 mm
01:53 PM 44.4°F6.9°C 37.9°F3.3°C 78% 2.0 mph WNW3.2 kmh WNW 8.9 mph14.3 kmh 30.23 in1023.7 mb 0.00 in0.0 mm 0.00 in0.0 mm 0.04 in1.0 mm
02:03 PM 44.4°F6.9°C 38.3°F3.5°C 79% 0.9 mph NW1.4 kmh NW 8.9 mph14.3 kmh 30.23 in1023.7 mb 0.00 in0.0 mm 0.00 in0.0 mm 0.04 in1.0 mm
02:13 PM 44.4°F6.9°C 38.3°F3.5°C 79% 0.9 mph NW1.4 kmh NW 6.0 mph9.7 kmh 30.24 in1024.0 mb 0.00 in0.0 mm 0.00 in0.0 mm 0.04 in1.0 mm
02:23 PM 44.4°F6.9°C 37.9°F3.3°C 78% 2.0 mph N3.2 kmh N 11.0 mph17.7 kmh 30.23 in1023.7 mb 0.00 in0.0 mm 0.00 in0.0 mm 0.04 in1.0 mm
02:33 PM 44.4°F6.9°C 38.3°F3.5°C 79% 2.0 mph ENE3.2 kmh ENE 11.0 mph17.7 kmh 30.23 in1023.7 mb 0.00 in0.0 mm 0.00 in0.0 mm 0.04 in1.0 mm
02:43 PM 44.4°F6.9°C 38.3°F3.5°C 79% 0.9 mph ENE1.4 kmh ENE 6.0 mph9.7 kmh 30.24 in1024.0 mb 0.00 in0.0 mm 0.00 in0.0 mm 0.04 in1.0 mm
02:53 PM 44.4°F6.9°C 37.9°F3.3°C 78% 0.9 mph NNE1.4 kmh NNE 6.0 mph9.7 kmh 30.24 in1024.0 mb 0.00 in0.0 mm 0.00 in0.0 mm 0.04 in1.0 mm
03:03 PM 44.4°F6.9°C 37.6°F3.1°C 77% 0.9 mph N1.4 kmh N 7.0 mph11.3 kmh 30.24 in1024.0 mb 0.00 in0.0 mm 0.00 in0.0 mm 0.04 in1.0 mm
03:13 PM 44.4°F6.9°C 37.6°F3.1°C 77% 0.9 mph NW1.4 kmh NW 8.1 mph13.0 kmh 30.24 in1024.0 mb 0.00 in0.0 mm 0.00 in0.0 mm 0.04 in1.0 mm
03:23 PM 44.4°F6.9°C 37.9°F3.3°C 78% 0.9 mph NW1.4 kmh NW 8.1 mph13.0 kmh 30.24 in1024.0 mb 0.00 in0.0 mm 0.00 in0.0 mm 0.04 in1.0 mm
03:33 PM 44.4°F6.9°C 37.6°F3.1°C 77% 0.9 mph WNW1.4 kmh WNW 4.9 mph7.9 kmh 30.24 in1024.0 mb 0.00 in0.0 mm 0.00 in0.0 mm 0.04 in1.0 mm
03:43 PM 44.4°F6.9°C 37.4°F3.0°C 76% 0.9 mph ENE1.4 kmh ENE 4.0 mph6.4 kmh 30.24 in1024.0 mb 0.00 in0.0 mm 0.00 in0.0 mm 0.04 in1.0 mm
03:53 PM 44.2°F6.8°C 37.6°F3.1°C 77% 0.9 mph NW1.4 kmh NW 4.0 mph6.4 kmh 30.24 in1024.0 mb 0.00 in0.0 mm 0.00 in0.0 mm 0.04 in1.0 mm
04:03 PM 44.1°F6.7°C 37.0°F2.8°C 76% 2.0 mph E3.2 kmh E 6.9 mph11.1 kmh 30.24 in1024.0 mb 0.00 in0.0 mm 0.00 in0.0 mm 0.04 in1.0 mm
04:13 PM 44.1°F6.7°C 37.0°F2.8°C 76% 0.9 mph NW1.4 kmh NW 6.9 mph11.1 kmh 30.24 in1024.0 mb 0.00 in0.0 mm 0.00 in0.0 mm 0.04 in1.0 mm
04:23 PM 43.9°F6.6°C 36.9°F2.7°C 76% 0.9 mph ENE1.4 kmh ENE 4.9 mph7.9 kmh 30.24 in1024.0 mb 0.00 in0.0 mm 0.00 in0.0 mm 0.04 in1.0 mm
04:33 PM 43.9°F6.6°C 36.9°F2.7°C 76% 0.9 mph NNE1.4 kmh NNE 6.0 mph9.7 kmh 30.25 in1024.4 mb 0.00 in0.0 mm 0.00 in0.0 mm 0.04 in1.0 mm
04:43 PM 43.9°F6.6°C 36.5°F2.5°C 75% 2.0 mph N3.2 kmh N 12.1 mph19.5 kmh 30.24 in1024.0 mb 0.00 in0.0 mm 0.00 in0.0 mm 0.04 in1.0 mm
04:53 PM 43.9°F6.6°C 37.2°F2.9°C 77% 0.9 mph NW1.4 kmh NW 4.0 mph6.4 kmh 30.25 in1024.4 mb 0.00 in0.0 mm 0.00 in0.0 mm 0.04 in1.0 mm
05:03 PM 43.9°F6.6°C 36.9°F2.7°C 76% 0.9 mph E1.4 kmh E 4.0 mph6.4 kmh 30.24 in1024.0 mb 0.00 in0.0 mm 0.00 in0.0 mm 0.04 in1.0 mm
05:13 PM 43.5°F6.4°C 36.5°F2.5°C 76% 2.0 mph NW3.2 kmh NW 6.0 mph9.7 kmh 30.25 in1024.4 mb 0.00 in0.0 mm 0.00 in0.0 mm 0.04 in1.0 mm
05:23 PM 43.3°F6.3°C 36.3°F2.4°C 76% 0.9 mph NW1.4 kmh NW 2.9 mph4.7 kmh 30.25 in1024.4 mb 0.00 in0.0 mm 0.00 in0.0 mm 0.04 in1.0 mm
05:33 PM 43.0°F6.1°C 36.3°F2.4°C 77% 0.9 mph NW1.4 kmh NW 2.9 mph4.7 kmh 30.26 in1024.7 mb 0.00 in0.0 mm 0.00 in0.0 mm 0.04 in1.0 mm
05:43 PM 43.0°F6.1°C 36.3°F2.4°C 77% Calm Calm 4.9 mph7.9 kmh 30.26 in1024.7 mb 0.00 in0.0 mm 0.00 in0.0 mm 0.04 in1.0 mm
05:53 PM 42.8°F6.0°C 36.1°F2.3°C 77% Calm Calm 2.9 mph4.7 kmh 30.26 in1024.7 mb 0.00 in0.0 mm 0.00 in0.0 mm 0.04 in1.0 mm
06:03 PM 42.6°F5.9°C 36.0°F2.2°C 77% 0.9 mph NNW1.4 kmh NNW 4.0 mph6.4 kmh 30.27 in1025.1 mb 0.00 in0.0 mm 0.00 in0.0 mm 0.04 in1.0 mm
06:13 PM 42.6°F5.9°C 36.3°F2.4°C 78% Calm Calm 2.9 mph4.7 kmh 30.27 in1025.1 mb 0.00 in0.0 mm 0.00 in0.0 mm 0.04 in1.0 mm
06:23 PM 42.6°F5.9°C 36.5°F2.5°C 79% Calm Calm 2.9 mph4.7 kmh 30.27 in1025.1 mb 0.00 in0.0 mm 0.00 in0.0 mm 0.04 in1.0 mm
06:33 PM 42.4°F5.8°C 36.1°F2.3°C 78% Calm Calm 3.0 mph4.8 kmh 30.27 in1025.1 mb 0.00 in0.0 mm 0.00 in0.0 mm 0.04 in1.0 mm
06:43 PM 42.4°F5.8°C 36.1°F2.3°C 78% Calm Calm 2.9 mph4.7 kmh 30.27 in1025.1 mb 0.00 in0.0 mm 0.00 in0.0 mm 0.04 in1.0 mm
06:53 PM 42.3°F5.7°C 36.1°F2.3°C 79% Calm Calm 2.0 mph3.2 kmh 30.28 in1025.4 mb 0.00 in0.0 mm 0.00 in0.0 mm 0.04 in1.0 mm
07:03 PM 42.3°F5.7°C 36.1°F2.3°C 79% Calm Calm 3.0 mph4.8 kmh 30.28 in1025.4 mb 0.00 in0.0 mm 0.00 in0.0 mm 0.04 in1.0 mm
07:13 PM 42.3°F5.7°C 36.0°F2.2°C 78% 0.9 mph WSW1.4 kmh WSW 4.0 mph6.4 kmh 30.28 in1025.4 mb 0.00 in0.0 mm 0.00 in0.0 mm 0.04 in1.0 mm
07:23 PM 42.3°F5.7°C 36.1°F2.3°C 79% Calm Calm 2.0 mph3.2 kmh 30.28 in1025.4 mb 0.00 in0.0 mm 0.00 in0.0 mm 0.04 in1.0 mm
07:33 PM 42.3°F5.7°C 36.0°F2.2°C 78% 0.9 mph NW1.4 kmh NW 3.0 mph4.8 kmh 30.28 in1025.4 mb 0.00 in0.0 mm 0.00 in0.0 mm 0.04 in1.0 mm
07:43 PM 42.3°F5.7°C 36.1°F2.3°C 79% 0.9 mph NNW1.4 kmh NNW 4.0 mph6.4 kmh 30.28 in1025.4 mb 0.00 in0.0 mm 0.00 in0.0 mm 0.04 in1.0 mm
07:53 PM 42.3°F5.7°C 36.1°F2.3°C 79% Calm Calm 2.0 mph3.2 kmh 30.29 in1025.7 mb 0.00 in0.0 mm 0.00 in0.0 mm 0.04 in1.0 mm
08:03 PM 42.1°F5.6°C 36.0°F2.2°C 79% Calm Calm 5.0 mph8.0 kmh 30.29 in1025.7 mb 0.00 in0.0 mm 0.00 in0.0 mm 0.04 in1.0 mm
08:13 PM 42.1°F5.6°C 36.0°F2.2°C 79% Calm Calm 3.0 mph4.8 kmh 30.29 in1025.7 mb 0.00 in0.0 mm 0.00 in0.0 mm 0.04 in1.0 mm
08:23 PM 42.1°F5.6°C 36.0°F2.2°C 79% Calm Calm 4.0 mph6.4 kmh 30.29 in1025.7 mb 0.00 in0.0 mm 0.00 in0.0 mm 0.04 in1.0 mm
08:33 PM 42.1°F5.6°C 35.8°F2.1°C 78% Calm Calm 2.0 mph3.2 kmh 30.29 in1025.7 mb 0.00 in0.0 mm 0.00 in0.0 mm 0.04 in1.0 mm
08:43 PM 42.1°F5.6°C 35.8°F2.1°C 78% Calm Calm 2.0 mph3.2 kmh 30.30 in1026.1 mb 0.00 in0.0 mm 0.00 in0.0 mm 0.04 in1.0 mm
08:53 PM 41.7°F5.4°C 35.4°F1.9°C 78% Calm Calm 2.9 mph4.7 kmh 30.30 in1026.1 mb 0.00 in0.0 mm 0.00 in0.0 mm 0.04 in1.0 mm
09:03 PM 41.7°F5.4°C 35.4°F1.9°C 78% Calm Calm 2.9 mph4.7 kmh 30.30 in1026.1 mb 0.00 in0.0 mm 0.00 in0.0 mm 0.04 in1.0 mm
09:13 PM 41.5°F5.3°C 35.2°F1.8°C 78% Calm Calm 2.0 mph3.2 kmh 30.31 in1026.4 mb 0.00 in0.0 mm 0.00 in0.0 mm 0.04 in1.0 mm
09:23 PM 41.5°F5.3°C 35.6°F2.0°C 79% Calm Calm 3.0 mph4.8 kmh 30.30 in1026.1 mb 0.00 in0.0 mm 0.00 in0.0 mm 0.04 in1.0 mm
09:33 PM 41.5°F5.3°C 35.2°F1.8°C 78% Calm Calm 2.0 mph3.2 kmh 30.30 in1026.1 mb 0.00 in0.0 mm 0.00 in0.0 mm 0.04 in1.0 mm
09:43 PM 41.5°F5.3°C 35.6°F2.0°C 79% Calm Calm 2.0 mph3.2 kmh 30.30 in1026.1 mb 0.00 in0.0 mm 0.00 in0.0 mm 0.04 in1.0 mm
09:53 PM 41.5°F5.3°C 35.6°F2.0°C 79% Calm Calm 1.0 mph1.6 kmh 30.30 in1026.1 mb 0.00 in0.0 mm 0.00 in0.0 mm 0.04 in1.0 mm
10:03 PM 41.4°F5.2°C 35.4°F1.9°C 79% Calm Calm 0.9 mph1.4 kmh 30.30 in1026.1 mb 0.00 in0.0 mm 0.00 in0.0 mm 0.04 in1.0 mm
10:13 PM 41.5°F5.3°C 36.1°F2.3°C 81% Calm Calm 1.0 mph1.6 kmh 30.30 in1026.1 mb 0.00 in0.0 mm 0.00 in0.0 mm 0.04 in1.0 mm
10:23 PM 41.5°F5.3°C 35.8°F2.1°C 80% Calm Calm -- 30.30 in1026.1 mb 0.00 in0.0 mm 0.00 in0.0 mm 0.04 in1.0 mm
10:34 PM 41.5°F5.3°C 35.8°F2.1°C 80% Calm Calm 1.0 mph1.6 kmh 30.30 in1026.1 mb 0.00 in0.0 mm 0.00 in0.0 mm 0.04 in1.0 mm
10:44 PM 41.5°F5.3°C 35.8°F2.1°C 80% Calm Calm 0.9 mph1.4 kmh 30.30 in1026.1 mb 0.00 in0.0 mm 0.00 in0.0 mm 0.04 in1.0 mm
10:54 PM 41.4°F5.2°C 35.6°F2.0°C 80% Calm Calm 0.9 mph1.4 kmh 30.30 in1026.1 mb 0.00 in0.0 mm 0.00 in0.0 mm 0.04 in1.0 mm
11:04 PM 41.4°F5.2°C 36.0°F2.2°C 81% Calm Calm 0.9 mph1.4 kmh 30.29 in1025.7 mb 0.00 in0.0 mm 0.00 in0.0 mm 0.04 in1.0 mm
11:14 PM 41.4°F5.2°C 35.6°F2.0°C 80% Calm Calm -- 30.29 in1025.7 mb 0.00 in0.0 mm 0.00 in0.0 mm 0.04 in1.0 mm
11:24 PM 41.0°F5.0°C 35.6°F2.0°C 81% Calm Calm -- 30.29 in1025.7 mb 0.00 in0.0 mm 0.00 in0.0 mm 0.04 in1.0 mm
11:34 PM 40.6°F4.8°C 35.6°F2.0°C 82% Calm Calm -- 30.29 in1025.7 mb 0.00 in0.0 mm 0.00 in0.0 mm 0.04 in1.0 mm
11:44 PM 40.3°F4.6°C 35.6°F2.0°C 83% Calm Calm 1.0 mph1.6 kmh 30.28 in1025.4 mb 0.00 in0.0 mm 0.00 in0.0 mm 0.04 in1.0 mm
11:54 PM 40.3°F4.6°C 35.8°F2.1°C 84% Calm Calm 1.0 mph1.6 kmh 30.28 in1025.4 mb 0.00 in0.0 mm 0.00 in0.0 mm 0.04 in1.0 mm